Time;durP1;ratioP1;P1;durP2;ratioP2;P2;SDS_P1;SDS_P2;PMS_P1;PMS_P2;Temp;Humidity;BMP_temperature;BMP_pressure;BME280_temperature;BME280_humidity;BME280_pressure;Samples;Min_cycle;Max_cycle;Signal;HPM_P1;HPM_P2
2022/02/24 00:02:00;;;;;;;5.72;2.40;;;;;;;2.66;100.00;99230.81;5043948;28;20499;-75
2022/02/24 00:04:26;;;;;;;8.63;2.60;;;;;;;2.85;100.00;99243.31;5033516;28;20450;-74
2022/02/24 00:06:51;;;;;;;6.78;2.20;;;;;;;3.14;99.23;99229.03;5031426;28;20519;-74
2022/02/24 00:09:16;;;;;;;5.32;2.38;;;;;;;3.32;98.03;99232.63;5032573;28;20495;-74
2022/02/24 00:11:42;;;;;;;7.38;2.70;;;;;;;3.51;96.77;99242.41;5034474;28;20537;-73
2022/02/24 00:14:08;;;;;;;6.78;2.65;;;;;;;3.47;95.89;99220.47;5033365;28;20113;-73
2022/02/24 00:16:33;;;;;;;5.18;2.55;;;;;;;3.50;94.73;99203.28;5028562;28;20040;-74
2022/02/24 00:18:58;;;;;;;6.45;2.70;;;;;;;3.28;94.89;99167.06;5021058;28;20040;-73
2022/02/24 00:21:23;;;;;;;6.40;2.72;;;;;;;3.63;94.63;99230.53;5031759;28;20056;-74
2022/02/24 00:23:49;;;;;;;3.72;2.00;;;;;;;3.71;94.69;99224.44;5032562;28;20030;-72
2022/02/24 00:26:14;;;;;;;9.68;3.20;;;;;;;3.76;93.84;99218.63;5033114;28;20029;-72
2022/02/24 00:28:40;;;;;;;5.78;2.50;;;;;;;3.77;93.03;99191.72;5031567;28;20047;-73
2022/02/24 00:31:08;;;;;;;4.72;2.17;;;;;;;4.10;92.50;99227.72;5024791;28;20041;-72
2022/02/24 00:33:33;;;;;;;5.22;2.08;;;;;;;4.32;90.45;99182.72;5032452;28;20021;-73
2022/02/24 00:35:59;;;;;;;5.25;2.08;;;;;;;4.35;89.65;99206.53;5046220;28;20033;-72
2022/02/24 00:38:24;;;;;;;4.18;2.17;;;;;;;4.24;90.45;99207.59;5033290;28;20021;-73
2022/02/24 00:40:49;;;;;;;6.75;2.88;;;;;;;4.29;90.85;99245.47;5032577;28;20022;-73
2022/02/24 00:43:14;;;;;;;8.38;3.10;;;;;;;4.13;91.15;99227.41;5033077;28;20493;-73
2022/02/24 00:45:40;;;;;;;4.05;2.55;;;;;;;4.05;89.11;99210.41;5032602;28;20052;-73
2022/02/24 00:48:07;;;;;;;9.48;2.85;;;;;;;3.90;89.91;99218.97;5031802;28;20116;-73
2022/02/24 00:50:32;;;;;;;6.47;3.00;;;;;;;3.81;91.63;99227.06;5032625;28;20374;-72
2022/02/24 00:52:57;;;;;;;6.07;2.70;;;;;;;3.58;92.83;99195.34;5036877;28;20158;-73
2022/02/24 00:55:25;;;;;;;6.43;2.80;;;;;;;3.86;92.98;99230.97;5031674;28;20108;-73
2022/02/24 00:57:51;;;;;;;10.15;3.17;;;;;;;3.92;92.76;99227.69;5031225;28;20103;-73
2022/02/24 01:00:16;;;;;;;6.13;2.92;;;;;;;4.06;91.39;99196.03;5031241;28;20481;-73
2022/02/24 01:02:42;;;;;;;6.93;2.72;;;;;;;4.23;90.64;99205.91;5030663;28;20427;-73
2022/02/24 01:05:08;;;;;;;7.90;2.80;;;;;;;4.11;90.79;99199.09;5032833;28;20370;-73
2022/02/24 01:07:33;;;;;;;3.72;2.42;;;;;;;4.02;91.39;99202.69;5023736;28;20060;-73
2022/02/24 01:09:58;;;;;;;9.25;3.13;;;;;;;4.05;91.00;99187.16;5031567;28;20140;-74
2022/02/24 01:12:24;;;;;;;6.97;3.20;;;;;;;3.92;91.34;99208.09;5032842;28;20036;-73
2022/02/24 01:14:49;;;;;;;5.95;3.05;;;;;;;3.98;91.54;99194.09;5034262;28;20028;-74
2022/02/24 01:17:15;;;;;;;6.88;3.03;;;;;;;3.91;91.91;99179.66;5031503;28;20469;-73
2022/02/24 01:19:40;;;;;;;6.03;3.00;;;;;;;3.84;92.38;99176.75;5031033;28;20009;-74
2022/02/24 01:22:05;;;;;;;5.90;2.75;;;;;;;3.87;92.17;99184.47;5032402;28;20040;-74
2022/02/24 01:24:31;;;;;;;11.07;3.47;;;;;;;4.00;92.32;99189.44;5030872;28;20026;-73
2022/02/24 01:26:56;;;;;;;6.60;2.78;;;;;;;3.90;92.69;99178.81;5031414;28;20025;-74
2022/02/24 01:29:21;;;;;;;6.82;2.70;;;;;;;4.05;92.95;99181.81;5046232;28;20040;-73
2022/02/24 01:31:47;;;;;;;7.70;3.00;;;;;;;4.03;93.20;99188.31;5032135;28;20060;-73
2022/02/24 01:34:12;;;;;;;6.38;2.92;;;;;;;4.00;93.33;99173.38;5031129;28;20029;-74
2022/02/24 01:36:37;;;;;;;7.75;3.80;;;;;;;3.91;94.15;99156.41;5031606;28;20025;-74
2022/02/24 01:39:03;;;;;;;6.88;3.70;;;;;;;3.84;94.11;99159.84;5033576;28;20105;-74
2022/02/24 01:41:28;;;;;;;7.82;3.20;;;;;;;3.94;94.71;99176.69;5030232;28;20048;-73
2022/02/24 01:43:53;;;;;;;6.28;2.97;;;;;;;3.74;94.76;99136.66;5031743;28;20049;-73
2022/02/24 01:46:19;;;;;;;5.43;3.05;;;;;;;3.89;94.42;99136.97;5032017;28;20037;-73
2022/02/24 01:48:44;;;;;;;5.15;2.95;;;;;;;4.25;93.11;99144.19;5029232;28;20112;-73
2022/02/24 01:51:11;;;;;;;5.97;2.97;;;;;;;4.51;91.43;99138.84;5030309;28;20495;-74
2022/02/24 01:53:36;;;;;;;4.38;2.47;;;;;;;4.61;90.85;99132.41;5032676;28;20034;-74
2022/02/24 01:56:06;;;;;;;7.05;2.70;;;;;;;4.40;90.20;99107.78;5030288;28;20033;-73
2022/02/24 01:58:31;;;;;;;9.43;2.65;;;;;;;4.68;90.44;99151.34;5027111;28;20135;-73
2022/02/24 02:00:57;;;;;;;7.07;2.95;;;;;;;4.52;91.18;99119.94;5034004;28;20116;-74
2022/02/24 02:03:22;;;;;;;8.82;2.65;;;;;;;4.53;89.81;99076.06;5031836;28;20021;-74
2022/02/24 02:05:50;;;;;;;7.75;2.60;;;;;;;4.84;88.82;99127.31;5030260;28;20028;-74
2022/02/24 02:08:16;;;;;;;8.38;2.95;;;;;;;4.89;88.67;99126.84;5031031;28;20041;-74
2022/02/24 02:10:42;;;;;;;8.48;2.70;;;;;;;4.81;88.99;99108.03;5032380;28;20112;-73
2022/02/24 02:13:07;;;;;;;7.47;2.72;;;;;;;4.81;89.06;99113.41;5026662;28;20072;-73
2022/02/24 02:15:32;;;;;;;6.47;3.33;;;;;;;4.89;88.76;99121.50;5031876;28;20029;-73
2022/02/24 02:17:58;;;;;;;6.75;3.33;;;;;;;4.78;88.60;99106.53;5031615;28;20023;-74
2022/02/24 02:20:23;;;;;;;8.30;3.50;;;;;;;4.97;88.56;99113.50;5030492;28;20025;-73
2022/02/24 02:22:51;;;;;;;5.65;3.03;;;;;;;5.03;87.58;99104.81;5033832;28;20104;-74
2022/02/24 02:25:22;;;;;;;10.43;3.10;;;;;;;4.95;88.24;99110.16;5029864;28;20030;-74
2022/02/24 02:27:52;;;;;;;11.02;3.35;;;;;;;4.78;88.89;99069.00;5029641;28;20503;-74
2022/02/24 02:30:19;;;;;;;9.40;3.05;;;;;;;4.91;88.55;99098.06;5028939;28;20455;-73
2022/02/24 02:32:45;;;;;;;9.18;3.00;;;;;;;4.75;88.37;99061.28;5033203;28;20026;-74
2022/02/24 02:35:10;;;;;;;3.97;2.50;;;;;;;4.92;88.04;99078.28;5029618;28;20079;-74
2022/02/24 02:37:36;;;;;;;6.03;2.72;;;;;;;4.91;88.33;99079.28;5030389;28;20034;-73
2022/02/24 02:40:03;;;;;;;6.65;2.67;;;;;;;5.07;87.93;99088.41;5029080;28;20065;-73
2022/02/24 02:42:28;;;;;;;6.10;2.75;;;;;;;4.76;88.54;99038.00;5029697;28;20029;-73
2022/02/24 02:44:54;;;;;;;5.97;2.78;;;;;;;4.97;88.67;99080.47;5031656;28;20465;-74
2022/02/24 02:47:19;;;;;;;6.60;2.83;;;;;;;5.10;87.78;99069.31;5030424;28;20495;-73
2022/02/24 02:49:44;;;;;;;6.75;2.90;;;;;;;5.10;88.27;99058.56;5031150;28;20026;-73
2022/02/24 02:52:11;;;;;;;7.78;2.92;;;;;;;5.11;87.04;99031.63;5029861;28;20228;-73
2022/02/24 02:54:36;;;;;;;5.22;2.42;;;;;;;5.29;86.97;99052.94;5035101;28;20040;-74
2022/02/24 02:57:02;;;;;;;7.93;2.60;;;;;;;5.24;86.98;99057.97;5029888;28;20029;-73
2022/02/24 02:59:28;;;;;;;7.28;2.90;;;;;;;5.23;86.99;99054.44;5029636;28;20032;-73
2022/02/24 03:01:54;;;;;;;7.00;3.20;;;;;;;5.21;87.03;99036.81;5029036;28;20021;-73
2022/02/24 03:04:21;;;;;;;8.18;3.10;;;;;;;5.23;87.68;99045.53;5031110;28;20033;-73
2022/02/24 03:06:46;;;;;;;8.05;3.40;;;;;;;5.29;87.02;99039.53;5029029;28;20037;-73
2022/02/24 03:09:11;;;;;;;7.35;2.75;;;;;;;5.39;87.10;99048.25;5029364;28;20477;-73
2022/02/24 03:11:37;;;;;;;6.63;3.25;;;;;;;5.33;86.77;99032.84;5029233;28;20029;-73
2022/02/24 03:14:02;;;;;;;6.90;2.42;;;;;;;5.31;86.66;99024.09;5046463;28;20048;-73
2022/02/24 03:16:27;;;;;;;6.82;2.70;;;;;;;5.32;87.27;99039.22;5028390;28;20047;-73
2022/02/24 03:18:53;;;;;;;5.97;2.47;;;;;;;5.38;86.76;99033.19;5034822;28;20442;-73
2022/02/24 03:21:18;;;;;;;8.15;2.55;;;;;;;5.26;86.21;98994.25;5027282;28;20496;-73
2022/02/24 03:23:45;;;;;;;6.38;2.47;;;;;;;5.54;86.00;99034.22;5033977;28;20538;-73
2022/02/24 03:26:11;;;;;;;4.72;2.40;;;;;;;5.49;85.47;99027.50;5044509;28;20037;-73
2022/02/24 03:28:36;;;;;;;6.20;2.63;;;;;;;5.37;85.41;99002.00;5033835;28;20048;-73
2022/02/24 03:31:01;;;;;;;7.38;2.45;;;;;;;5.52;84.52;99017.44;5058325;22;20570;-74
2022/02/24 03:33:27;;;;;;;8.85;3.10;;;;;;;5.51;85.26;99021.97;5052828;28;20032;-74
2022/02/24 03:35:52;;;;;;;6.15;2.50;;;;;;;5.45;84.51;99014.59;5054162;28;20039;-74
2022/02/24 03:38:17;;;;;;;5.65;2.28;;;;;;;5.54;84.53;99021.63;5064675;28;20043;-74
2022/02/24 03:40:43;;;;;;;7.53;2.72;;;;;;;5.46;84.79;99009.03;5059553;28;20040;-74
2022/02/24 03:43:08;;;;;;;5.10;2.67;;;;;;;5.38;84.95;99019.78;5050603;28;20082;-74
2022/02/24 03:45:33;;;;;;;6.70;2.67;;;;;;;5.31;84.84;99012.53;5053977;28;20021;-77
2022/02/24 03:47:59;;;;;;;6.05;2.60;;;;;;;5.21;86.13;99008.19;5048266;28;20538;-74
2022/02/24 03:50:24;;;;;;;7.45;2.95;;;;;;;5.24;85.93;99004.31;5053817;28;20118;-74
2022/02/24 03:52:50;;;;;;;6.85;2.53;;;;;;;5.22;85.91;99014.38;5052645;28;20032;-74
2022/02/24 03:55:15;;;;;;;7.28;2.95;;;;;;;5.25;85.94;99009.50;5052733;28;20112;-74
2022/02/24 03:57:41;;;;;;;5.65;2.50;;;;;;;5.18;86.13;98994.22;5047846;28;20055;-74
2022/02/24 04:00:08;;;;;;;6.60;2.83;;;;;;;5.16;86.08;98982.81;5049618;28;20028;-74
2022/02/24 04:02:34;;;;;;;4.70;2.50;;;;;;;5.25;85.95;99004.16;5048809;28;20030;-74
2022/02/24 04:05:00;;;;;;;4.32;2.40;;;;;;;5.12;86.16;98984.16;5052891;28;20027;-74
2022/02/24 04:07:26;;;;;;;5.50;2.65;;;;;;;5.12;86.56;98986.84;5045314;28;20036;-74
2022/02/24 04:09:51;;;;;;;4.75;2.42;;;;;;;5.16;85.77;98974.78;5052439;28;20033;-74
2022/02/24 04:12:17;;;;;;;5.55;2.60;;;;;;;5.12;86.30;98981.50;5053888;28;20060;-75
2022/02/24 04:14:43;;;;;;;4.55;2.47;;;;;;;5.32;85.61;98982.00;5051885;28;20079;-75
2022/02/24 04:17:09;;;;;;;4.93;2.55;;;;;;;5.17;85.86;98961.22;5033026;28;20166;-75
2022/02/24 04:19:34;;;;;;;6.43;2.47;;;;;;;5.31;85.89;98974.97;5052023;28;20502;-74
2022/02/24 04:22:00;;;;;;;4.47;2.10;;;;;;;5.28;85.13;98960.06;5052784;28;20060;-75
2022/02/24 04:24:25;;;;;;;4.35;2.30;;;;;;;5.33;85.31;98960.41;5050099;28;20032;-72
2022/02/24 04:26:50;;;;;;;5.00;2.08;;;;;;;5.49;84.63;98970.31;5046636;28;20146;-68
2022/02/24 04:29:16;;;;;;;5.50;2.78;;;;;;;5.39;84.90;98969.63;5042307;28;20543;-68
2022/02/24 04:31:41;;;;;;;7.10;2.50;;;;;;;5.30;86.07;98966.09;5045638;28;20028;-69
2022/02/24 04:34:06;;;;;;;5.93;2.53;;;;;;;5.25;86.86;98971.13;5048184;28;20029;-73
2022/02/24 04:36:31;;;;;;;3.83;2.20;;;;;;;5.26;87.01;98965.56;5046462;28;20447;-70
2022/02/24 04:38:57;;;;;;;4.95;3.08;;;;;;;5.11;86.10;98948.47;5050120;28;20387;-70
2022/02/24 04:41:22;;;;;;;6.93;2.70;;;;;;;5.17;85.89;98958.53;5051937;28;20442;-71
2022/02/24 04:43:47;;;;;;;4.95;2.63;;;;;;;5.19;86.86;98961.91;5048767;28;20040;-71
2022/02/24 04:46:13;;;;;;;4.88;2.53;;;;;;;5.22;85.89;98964.25;5050183;28;20028;-70
2022/02/24 04:48:38;;;;;;;7.65;2.53;;;;;;;5.12;86.69;98952.81;5051848;28;20128;-70
2022/02/24 04:51:04;;;;;;;5.53;2.42;;;;;;;5.22;86.01;98948.16;5044141;28;20056;-72
2022/02/24 04:53:29;;;;;;;6.10;2.35;;;;;;;5.10;86.38;98946.78;5037144;28;20029;-72
2022/02/24 04:55:54;;;;;;;4.10;2.10;;;;;;;5.30;85.94;98957.22;5052391;28;20491;-71
2022/02/24 04:58:20;;;;;;;5.07;2.28;;;;;;;5.13;85.98;98940.25;5053594;28;20032;-76
2022/02/24 05:00:46;;;;;;;5.97;2.00;;;;;;;4.98;86.70;98924.81;5046875;28;20056;-72
2022/02/24 05:03:11;;;;;;;5.43;2.47;;;;;;;5.09;87.35;98934.38;5045837;28;20071;-72
2022/02/24 05:05:37;;;;;;;5.18;2.60;;;;;;;5.13;87.32;98918.78;5054922;28;20056;-71
2022/02/24 05:08:02;;;;;;;6.43;2.30;;;;;;;5.09;87.25;98925.50;5052813;28;20021;-72
2022/02/24 05:10:28;;;;;;;5.30;2.70;;;;;;;5.08;87.06;98921.13;5074210;28;20060;-72
2022/02/24 05:12:55;;;;;;;7.35;2.75;;;;;;;5.03;87.17;98909.06;5063847;28;20020;-72
2022/02/24 05:15:21;;;;;;;4.70;2.28;;;;;;;5.02;87.25;98906.53;5058728;28;20055;-72
2022/02/24 05:17:46;;;;;;;7.55;2.55;;;;;;;5.02;87.52;98893.13;5061045;28;20033;-70
2022/02/24 05:20:13;;;;;;;6.93;2.30;;;;;;;4.88;88.28;98875.88;5065021;28;20502;-75
2022/02/24 05:22:41;;;;;;;3.08;1.90;;;;;;;4.84;88.38;98888.75;5070127;28;20031;-74
2022/02/24 05:25:08;;;;;;;3.38;2.25;;;;;;;4.82;89.31;98880.06;5061946;28;20083;-71
2022/02/24 05:27:33;;;;;;;3.92;2.10;;;;;;;4.60;89.06;98868.09;5059597;28;20028;-72
2022/02/24 05:30:00;;;;;;;3.50;2.15;;;;;;;4.68;89.64;98882.53;5055446;28;20117;-73
2022/02/24 05:32:25;;;;;;;3.45;2.05;;;;;;;4.60;90.55;98877.97;5055358;28;20051;-73
2022/02/24 05:34:51;;;;;;;5.07;2.50;;;;;;;4.36;91.73;98858.16;5057909;28;20025;-71
2022/02/24 05:37:17;;;;;;;6.05;2.53;;;;;;;4.37;92.05;98881.25;5066414;28;20449;-72
2022/02/24 05:39:43;;;;;;;4.78;2.50;;;;;;;4.18;93.53;98885.03;5067367;28;20028;-71
2022/02/24 05:42:08;;;;;;;7.57;3.00;;;;;;;4.18;93.57;98881.50;5055190;28;20032;-72
2022/02/24 05:44:34;;;;;;;5.90;2.53;;;;;;;4.45;92.39;98888.47;5064753;28;20028;-72
2022/02/24 05:46:59;;;;;;;7.13;2.60;;;;;;;4.54;92.15;98886.69;5065902;28;20071;-71
2022/02/24 05:49:24;;;;;;;6.90;3.17;;;;;;;4.65;91.50;98883.69;5054601;28;21796;-72
2022/02/24 05:51:50;;;;;;;6.28;2.92;;;;;;;4.56;91.24;98890.88;5059588;28;20035;-72
2022/02/24 05:54:15;;;;;;;4.72;2.60;;;;;;;4.47;91.64;98867.72;5066912;28;20028;-75
2022/02/24 05:56:41;;;;;;;6.10;2.92;;;;;;;4.42;91.60;98856.66;5051758;28;20044;-73
2022/02/24 05:59:07;;;;;;;5.22;2.88;;;;;;;4.47;91.97;98877.59;5052981;28;20025;-70
2022/02/24 06:01:32;;;;;;;6.85;3.10;;;;;;;4.42;91.85;98859.34;5053566;28;20047;-70
2022/02/24 06:03:57;;;;;;;7.28;3.10;;;;;;;4.61;91.04;98866.25;5054438;28;20036;-70
2022/02/24 06:06:22;;;;;;;8.25;3.28;;;;;;;4.62;91.33;98867.94;5038652;28;20128;-70
2022/02/24 06:08:48;;;;;;;10.07;3.53;;;;;;;4.47;91.72;98870.41;5038981;28;20040;-72
2022/02/24 06:11:13;;;;;;;7.95;3.53;;;;;;;4.35;92.05;98861.84;5058492;28;20029;-71
2022/02/24 06:13:39;;;;;;;6.75;2.95;;;;;;;4.46;91.83;98865.22;5054145;28;20486;-72
2022/02/24 06:16:04;;;;;;;4.97;2.45;;;;;;;4.41;92.47;98876.41;5037265;28;20030;-71
2022/02/24 06:18:30;;;;;;;6.15;2.78;;;;;;;4.38;92.39;98871.41;5037942;28;20100;-72
2022/02/24 06:20:56;;;;;;;5.28;2.70;;;;;;;4.17;91.96;98834.31;5047461;28;20025;-74
2022/02/24 06:23:22;;;;;;;5.50;2.70;;;;;;;4.44;92.59;98870.72;5034655;28;20032;-70
2022/02/24 06:25:48;;;;;;;6.43;2.80;;;;;;;4.33;92.19;98858.47;5036211;28;20029;-67
2022/02/24 06:28:13;;;;;;;7.43;3.08;;;;;;;4.46;92.33;98871.41;5048887;28;20499;-69
2022/02/24 06:30:39;;;;;;;11.60;3.38;;;;;;;4.54;91.83;98873.28;5042863;28;20025;-71
2022/02/24 06:33:04;;;;;;;11.95;4.05;;;;;;;4.50;92.10;98870.06;5039725;28;20112;-71
2022/02/24 06:35:30;;;;;;;11.50;4.72;;;;;;;4.61;91.88;98879.63;5048476;28;20028;-69
2022/02/24 06:37:56;;;;;;;9.35;4.03;;;;;;;4.64;91.15;98863.25;5047707;28;20067;-71
2022/02/24 06:40:22;;;;;;;7.00;3.45;;;;;;;4.84;90.70;98874.50;5042967;28;20033;-69
2022/02/24 06:42:48;;;;;;;8.63;3.63;;;;;;;4.92;90.33;98866.47;5051624;28;20036;-72
2022/02/24 06:45:14;;;;;;;9.18;3.60;;;;;;;4.94;89.56;98844.88;5047736;28;20064;-72
2022/02/24 06:47:40;;;;;;;6.45;3.25;;;;;;;4.98;88.84;98860.47;5032141;28;20018;-68
2022/02/24 06:50:07;;;;;;;7.00;3.33;;;;;;;4.97;88.98;98828.44;5041515;28;20461;-72
2022/02/24 06:52:32;;;;;;;10.30;3.75;;;;;;;5.20;87.68;98856.28;5044666;28;20428;-72
2022/02/24 06:54:57;;;;;;;5.43;3.17;;;;;;;5.28;87.50;98858.13;5042502;28;20044;-72
2022/02/24 06:57:23;;;;;;;6.20;3.00;;;;;;;5.38;86.71;98858.78;5040080;28;20053;-71
2022/02/24 06:59:48;;;;;;;6.85;3.33;;;;;;;5.48;86.22;98859.47;5053734;28;20024;-71
2022/02/24 07:02:14;;;;;;;6.47;3.50;;;;;;;5.53;85.85;98861.63;5046957;28;20021;-73
2022/02/24 07:04:39;;;;;;;8.52;4.25;;;;;;;5.52;85.00;98848.38;5041905;28;20029;-72
2022/02/24 07:07:04;;;;;;;7.38;3.50;;;;;;;5.66;85.38;98861.94;5044038;28;20037;-72
2022/02/24 07:09:31;;;;;;;8.25;3.85;;;;;;;5.55;85.33;98835.44;5050274;28;20024;-74
2022/02/24 07:11:56;;;;;;;7.03;3.47;;;;;;;5.83;83.09;98841.25;5041061;28;20029;-72
2022/02/24 07:14:22;;;;;;;9.00;4.00;;;;;;;6.05;82.54;98852.31;5043432;28;20103;-75
2022/02/24 07:16:47;;;;;;;6.97;3.67;;;;;;;6.19;82.16;98840.84;5035340;28;20460;-71
2022/02/24 07:19:14;;;;;;;8.65;3.95;;;;;;;6.34;80.93;98852.53;5043942;28;20039;-70
2022/02/24 07:21:39;;;;;;;7.85;4.40;;;;;;;6.61;80.08;98849.56;5046565;28;20059;-70
2022/02/24 07:24:05;;;;;;;6.28;3.70;;;;;;;6.58;79.43;98823.84;5038588;28;20021;-70
2022/02/24 07:26:30;;;;;;;6.97;3.47;;;;;;;6.86;78.15;98840.28;5047895;28;20028;-68
2022/02/24 07:28:56;;;;;;;7.28;3.40;;;;;;;7.12;77.29;98829.16;5042690;28;20515;-71
2022/02/24 07:31:21;;;;;;;8.27;3.15;;;;;;;7.14;76.47;98823.63;5040306;28;20106;-70
2022/02/24 07:33:47;;;;;;;5.93;3.25;;;;;;;7.42;75.03;98810.44;5054282;28;20479;-69
2022/02/24 07:36:13;;;;;;;6.13;3.08;;;;;;;7.63;73.71;98815.09;5044511;28;20025;-69
2022/02/24 07:38:39;;;;;;;5.30;2.92;;;;;;;7.88;72.69;98823.72;5045347;28;20044;-71
2022/02/24 07:41:04;;;;;;;7.43;3.50;;;;;;;8.30;70.85;98808.75;5042726;28;20028;-73
2022/02/24 07:43:30;;;;;;;7.13;3.47;;;;;;;9.24;67.35;98816.81;5053833;28;20391;-73
2022/02/24 07:45:55;;;;;;;6.28;3.20;;;;;;;9.45;66.09;98810.53;5052744;28;20142;-70
2022/02/24 07:48:21;;;;;;;7.35;3.67;;;;;;;9.43;66.21;98810.75;5053447;28;20168;-72
2022/02/24 07:50:46;;;;;;;6.57;3.58;;;;;;;9.20;66.58;98804.75;5044879;28;20048;-72
2022/02/24 07:53:11;;;;;;;7.13;3.58;;;;;;;9.13;66.75;98798.44;5050259;28;20472;-73
2022/02/24 07:55:38;;;;;;;8.40;3.83;;;;;;;8.94;67.65;98797.25;5042697;28;20147;-71
2022/02/24 07:58:04;;;;;;;6.97;3.78;;;;;;;8.75;68.06;98796.88;5039962;28;20168;-73
2022/02/24 08:00:29;;;;;;;5.55;2.83;;;;;;;9.27;66.99;98792.13;5049347;28;20052;-71
2022/02/24 08:02:55;;;;;;;11.57;3.83;;;;;;;9.92;64.10;98779.28;5052096;28;20045;-70
2022/02/24 08:05:21;;;;;;;7.25;3.28;;;;;;;10.30;62.04;98758.06;5042077;28;20143;-71
2022/02/24 08:07:46;;;;;;;7.38;3.40;;;;;;;10.27;62.12;98784.63;5035478;28;20032;-74
2022/02/24 08:10:13;;;;;;;6.68;3.28;;;;;;;10.50;61.92;98779.75;5039488;28;20044;-70
2022/02/24 08:12:44;;;;;;;7.45;3.10;;;;;;;10.47;61.35;98776.63;5038412;28;20037;-69
2022/02/24 08:15:13;;;;;;;6.53;2.92;;;;;;;10.73;60.97;98776.69;5039140;28;20546;-71
2022/02/24 08:17:39;;;;;;;6.57;3.17;;;;;;;11.44;58.76;98764.44;5045469;28;20032;-73
2022/02/24 08:20:07;;;;;;;4.95;2.97;;;;;;;11.37;58.15;98753.63;5046963;28;20029;-71
2022/02/24 08:22:43;;;;;;;6.97;2.95;;;;;;;12.11;56.52;98773.31;5041531;28;20024;-69
2022/02/24 08:25:11;;;;;;;6.75;2.72;;;;;;;12.64;54.79;98769.53;5050675;28;20052;-72
2022/02/24 08:27:38;;;;;;;10.70;2.50;;;;;;;12.51;54.01;98773.13;5049899;28;20029;-73
2022/02/24 08:30:06;;;;;;;5.93;2.58;;;;;;;13.84;51.46;98769.41;5042709;28;20021;-73
2022/02/24 08:32:31;;;;;;;4.13;2.65;;;;;;;14.35;49.53;98762.75;5046055;28;20025;-69
2022/02/24 08:34:58;;;;;;;4.68;3.10;;;;;;;14.23;49.86;98754.53;5048933;28;20025;-70
2022/02/24 08:37:24;;;;;;;12.57;3.30;;;;;;;14.38;49.25;98751.44;5041030;28;20354;-72
2022/02/24 08:39:50;;;;;;;6.97;3.60;;;;;;;15.12;47.17;98751.22;5053340;28;20484;-73
2022/02/24 08:42:15;;;;;;;4.80;2.58;;;;;;;14.93;46.87;98750.44;5039876;28;20033;-72
2022/02/24 08:44:43;;;;;;;7.82;3.00;;;;;;;14.28;49.22;98753.84;5036723;28;20067;-71
2022/02/24 08:47:12;;;;;;;5.55;2.72;;;;;;;14.06;49.39;98728.16;5048484;28;20380;-70
2022/02/24 08:49:37;;;;;;;6.35;2.70;;;;;;;13.67;49.77;98736.53;5055067;28;20040;-73
2022/02/24 08:52:04;;;;;;;6.35;2.78;;;;;;;13.44;50.85;98720.91;5047216;28;20492;-73
2022/02/24 08:54:29;;;;;;;5.97;2.60;;;;;;;13.63;50.93;98735.34;5047607;28;20030;-74
2022/02/24 08:56:54;;;;;;;8.07;2.90;;;;;;;13.98;49.74;98716.53;5050214;28;20040;-69
2022/02/24 08:59:20;;;;;;;10.27;2.50;;;;;;;15.08;47.34;98714.59;5044575;28;20141;-72
2022/02/24 09:01:45;;;;;;;6.50;2.88;;;;;;;15.13;46.80;98729.19;5046230;28;20025;-70
2022/02/24 09:04:12;;;;;;;9.88;2.67;;;;;;;14.92;47.45;98705.22;5051688;28;20031;-74
2022/02/24 09:06:38;;;;;;;3.63;2.47;;;;;;;14.80;47.48;98715.25;5051658;28;20083;-69
2022/02/24 09:09:04;;;;;;;5.55;2.80;;;;;;;15.20;47.35;98711.91;5051581;28;20418;-71
2022/02/24 09:11:29;;;;;;;5.35;2.65;;;;;;;15.69;45.96;98707.06;5049370;28;20480;-70
2022/02/24 09:13:54;;;;;;;6.47;2.70;;;;;;;16.49;43.88;98711.72;5038622;28;20027;-69
2022/02/24 09:16:20;;;;;;;5.63;2.50;;;;;;;16.96;43.63;98697.00;5045474;28;20025;-72
2022/02/24 09:18:46;;;;;;;3.83;2.35;;;;;;;16.99;43.02;98697.34;5050483;28;20099;-72
2022/02/24 09:21:12;;;;;;;4.63;2.30;;;;;;;16.50;44.45;98696.97;5035942;28;20457;-72
2022/02/24 09:23:38;;;;;;;5.72;2.67;;;;;;;16.66;44.03;98684.41;5038708;28;20056;-67
2022/02/24 09:26:03;;;;;;;4.43;2.25;;;;;;;16.83;43.88;98693.50;5043198;28;20120;-67
2022/02/24 09:28:28;;;;;;;7.68;2.20;;;;;;;17.03;42.87;98676.66;5051763;28;20024;-68
2022/02/24 09:33:21;;;;;;;5.15;2.20;;;;;;;16.26;45.01;98688.06;5066987;28;20265;-65
2022/02/24 09:35:47;;;;;;;4.28;2.20;;;;;;;15.24;46.82;98669.47;5072476;28;20058;-65
2022/02/24 09:38:14;;;;;;;3.72;2.10;;;;;;;15.83;45.62;98664.81;5070439;28;20099;-68
2022/02/24 09:40:40;;;;;;;6.40;2.20;;;;;;;16.93;43.49;98667.44;5054331;28;20017;-67
2022/02/24 09:43:06;;;;;;;6.32;2.00;;;;;;;17.18;42.60;98670.56;5035214;28;20120;-72
2022/02/24 09:45:33;;;;;;;4.75;2.08;;;;;;;16.46;44.42;98660.31;5026717;28;20122;-69
2022/02/24 09:48:02;;;;;;;3.67;1.80;;;;;;;17.28;43.67;98656.22;5046763;28;20021;-68
2022/02/24 09:50:29;;;;;;;7.68;1.88;;;;;;;17.78;41.82;98651.72;5051950;28;20025;-65
2022/02/24 09:52:54;;;;;;;4.68;2.17;;;;;;;17.59;41.55;98653.94;5050715;28;20040;-67
2022/02/24 09:55:20;;;;;;;4.57;2.25;;;;;;;15.70;45.36;98652.28;5049431;28;20028;-64
2022/02/24 09:57:45;;;;;;;5.10;2.00;;;;;;;14.44;48.39;98643.50;5048303;28;20079;-70
2022/02/24 10:00:11;;;;;;;4.70;1.98;;;;;;;13.70;49.89;98624.63;5047778;28;20542;-72
2022/02/24 10:02:37;;;;;;;3.95;2.10;;;;;;;13.95;49.54;98651.72;5050921;28;20039;-65
2022/02/24 10:05:08;;;;;;;3.90;1.77;;;;;;;14.36;48.46;98606.56;5047145;28;20034;-69
2022/02/24 10:07:35;;;;;;;2.63;1.83;;;;;;;14.27;49.44;98626.16;5024991;28;20082;-68
2022/02/24 10:10:26;;;;;;;3.40;1.90;;;;;;;15.73;46.76;98634.59;5051040;28;20045;-68
2022/02/24 10:13:08;;;;;;;3.38;1.52;;;;;;;17.02;43.90;98622.22;5044546;28;20033;-68
2022/02/24 10:15:37;;;;;;;3.90;1.60;;;;;;;17.30;42.41;98586.56;5050551;28;20035;-67
2022/02/24 10:18:16;;;;;;;4.45;1.95;;;;;;;17.88;41.01;98610.84;5043062;28;20040;-67
2022/02/24 10:20:46;;;;;;;;;;;;;;;17.71;42.11;98614.44;5051760;28;20083;-70
2022/02/24 10:23:13;;;;;;;3.70;1.80;;;;;;;17.46;42.33;98604.00;5048838;28;20381;-68
2022/02/24 10:25:39;;;;;;;5.97;1.95;;;;;;;16.71;43.45;98585.34;5048069;28;20044;-69
2022/02/24 10:28:05;;;;;;;3.80;1.63;;;;;;;16.35;44.64;98582.84;5044715;28;20021;-73
2022/02/24 10:30:30;;;;;;;4.03;1.73;;;;;;;16.37;44.36;98586.19;5036113;28;20112;-73
2022/02/24 10:32:56;;;;;;;2.33;1.38;;;;;;;17.26;42.94;98599.06;5035769;28;20071;-69
2022/02/24 10:35:34;;;;;;;4.28;1.90;;;;;;;17.82;41.72;98568.91;5053973;28;20039;-73
2022/02/24 10:38:02;;;;;;;5.63;1.83;;;;;;;17.16;42.49;98592.63;5037331;28;20379;-72
2022/02/24 10:40:33;;;;;;;4.00;1.75;;;;;;;17.15;42.46;98586.31;5052918;28;20024;-73
2022/02/24 10:43:20;;;;;;;2.95;1.85;;;;;;;17.07;42.20;98576.66;5052577;28;20016;-71
2022/02/24 10:45:59;;;;;;;3.38;1.63;;;;;;;18.17;40.80;98579.41;5036559;28;20021;-69
2022/02/24 10:48:26;;;;;;;4.22;1.67;;;;;;;18.47;40.81;98580.81;5025466;28;20064;-69
2022/02/24 10:51:05;;;;;;;3.25;2.00;;;;;;;18.19;40.18;98568.22;5030554;28;20045;-74
2022/02/24 10:53:35;;;;;;;;;;;;;;;18.01;40.70;98569.38;5030028;28;20459;-69
2022/02/24 10:56:09;;;;;;;6.53;2.00;;;;;;;18.31;39.86;98544.22;5054149;28;19912;-71
2022/02/24 10:58:37;;;;;;;4.82;2.10;;;;;;;19.25;38.42;98552.84;5054694;28;20021;-76
2022/02/24 11:01:20;;;;;;;3.92;1.80;;;;;;;19.45;37.69;98531.03;5036528;28;20021;-75
2022/02/24 11:03:58;;;;;;;3.42;1.70;;;;;;;19.18;38.39;98541.31;5035217;28;20438;-75
2022/02/24 11:06:26;;;;;;;6.47;1.70;;;;;;;18.70;39.48;98538.50;5049696;28;20500;-75
2022/02/24 11:08:53;;;;;;;2.75;1.67;;;;;;;17.29;41.88;98530.22;5030003;28;20025;-73
2022/02/24 11:11:21;;;;;;;3.65;1.50;;;;;;;17.16;42.57;98544.25;5025321;28;20842;-71
2022/02/24 11:13:48;;;;;;;4.77;1.57;;;;;;;16.25;44.15;98539.00;5046320;28;20514;-70
2022/02/24 11:16:14;;;;;;;6.80;1.60;;;;;;;15.97;45.98;98523.47;5039938;28;20028;-70
2022/02/24 11:18:42;;;;;;;5.20;1.92;;;;;;;15.78;46.16;98529.16;5046655;28;20028;-67
2022/02/24 11:21:12;;;;;;;2.60;1.20;;;;;;;15.64;45.64;98519.59;5047183;28;20060;-68
2022/02/24 11:23:39;;;;;;;3.33;1.17;;;;;;;15.87;45.20;98526.84;5028920;28;20769;-70
2022/02/24 11:26:31;;;;;;;2.92;0.80;;;;;;;15.50;45.15;98519.00;5046630;28;20055;-71
2022/02/24 11:29:22;;;;;;;3.50;0.75;;;;;;;15.32;45.59;98516.47;5033865;28;20080;-70
2022/02/24 11:31:55;;;;;;;2.47;0.77;;;;;;;14.51;46.71;98491.78;5046427;28;20032;-71
2022/02/24 11:35:06;;;;;;;2.80;1.10;;;;;;;14.37;47.08;98509.41;5049334;28;20024;-71
2022/02/24 11:37:42;;;;;;;3.60;0.95;;;;;;;14.52;47.75;98500.78;5032439;28;20021;-72
2022/02/24 11:40:18;;;;;;;2.58;1.00;;;;;;;14.65;47.60;98501.41;5032194;28;20092;-72